createdAt,value
2024-04-30T00:01:17.787Z,14.21
2024-04-30T00:04:04.794Z,14.20
2024-04-30T00:06:45.053Z,14.21
2024-04-30T00:09:31.641Z,14.24
2024-04-30T00:12:25.633Z,14.22
2024-04-30T00:15:06.596Z,14.25
2024-04-30T00:17:53.648Z,14.25
2024-04-30T00:20:34.057Z,14.22
2024-04-30T00:23:20.625Z,14.21
2024-04-30T00:26:07.643Z,14.22
2024-04-30T00:28:47.727Z,14.22
2024-04-30T00:31:34.682Z,14.19
2024-04-30T00:34:21.639Z,14.22
2024-04-30T00:37:08.608Z,14.21
2024-04-30T00:39:48.797Z,14.21
2024-04-30T00:42:36.622Z,14.16
2024-04-30T00:45:16.732Z,14.15
2024-04-30T00:48:03.682Z,14.11
2024-04-30T00:50:47.735Z,14.04
2024-04-30T00:53:34.605Z,14.00
2024-04-30T00:56:22.571Z,14.01
2024-04-30T00:59:09.605Z,13.95
2024-04-30T01:01:49.782Z,13.94
2024-04-30T01:04:36.654Z,13.91
2024-04-30T01:07:16.743Z,13.92
2024-04-30T01:10:03.608Z,13.96
2024-04-30T01:12:51.740Z,14.00
2024-04-30T01:15:31.550Z,13.99
2024-04-30T01:18:11.950Z,13.93
2024-04-30T01:20:58.579Z,13.96
2024-04-30T01:23:39.064Z,13.95
2024-04-30T01:26:25.540Z,13.94
2024-04-30T01:29:06.000Z,13.94
2024-04-30T01:31:52.575Z,13.89
2024-04-30T01:34:33.006Z,13.88
2024-04-30T01:37:19.627Z,13.89
2024-04-30T01:39:59.932Z,13.85
2024-04-30T01:42:46.541Z,13.81
2024-04-30T01:45:27.079Z,13.83
2024-04-30T01:48:20.631Z,13.81
2024-04-30T01:51:00.972Z,13.82
2024-04-30T01:53:47.503Z,13.78
2024-04-30T01:56:27.943Z,13.80
2024-04-30T01:59:14.514Z,13.75
2024-04-30T02:01:55.050Z,13.80
2024-04-30T02:04:48.796Z,13.79
2024-04-30T02:07:32.969Z,13.86
2024-04-30T02:10:19.681Z,13.85
2024-04-30T02:13:13.532Z,13.86
2024-04-30T02:15:53.918Z,13.89
2024-04-30T02:18:40.479Z,13.90
2024-04-30T02:21:20.976Z,13.92
2024-04-30T02:24:07.487Z,13.91
2024-04-30T02:26:47.866Z,13.93
2024-04-30T02:29:34.495Z,13.92
2024-04-30T02:32:50.354Z,13.92
2024-04-30T02:35:37.507Z,13.98
2024-04-30T02:38:17.867Z,13.99
2024-04-30T02:41:04.443Z,14.00
2024-04-30T02:43:44.925Z,13.98
2024-04-30T02:46:38.550Z,14.02
2024-04-30T02:49:18.914Z,13.97
2024-04-30T02:52:05.534Z,13.96
2024-04-30T02:54:45.829Z,13.93
2024-04-30T02:57:32.453Z,13.94
2024-04-30T03:00:13.525Z,13.94
2024-04-30T03:03:00.548Z,13.93
2024-04-30T03:05:40.909Z,13.96
2024-04-30T03:08:27.458Z,13.96
2024-04-30T03:11:21.494Z,13.91
2024-04-30T03:14:08.445Z,13.89
2024-04-30T03:16:49.516Z,13.93
2024-04-30T03:19:36.462Z,13.93
2024-04-30T03:22:16.571Z,13.93
2024-04-30T03:25:03.424Z,13.99
2024-04-30T03:27:43.495Z,13.99
2024-04-30T03:30:30.402Z,14.03
2024-04-30T03:33:17.590Z,14.00
2024-04-30T03:35:57.413Z,14.01
2024-04-30T03:38:47.537Z,14.05
2024-04-30T03:41:27.423Z,14.01
2024-04-30T03:44:14.552Z,14.05
2024-04-30T03:47:01.549Z,14.09
2024-04-30T03:49:48.396Z,14.06
2024-04-30T03:52:28.824Z,14.05
2024-04-30T03:55:15.420Z,14.06
2024-04-30T03:58:02.467Z,14.07
2024-04-30T04:00:49.387Z,14.02
2024-04-30T04:03:29.865Z,14.01
2024-04-30T04:06:17.757Z,14.03
2024-04-30T04:09:05.492Z,14.00
2024-04-30T04:12:17.433Z,13.96
2024-04-30T04:15:04.331Z,13.96
2024-04-30T04:17:44.580Z,13.93
2024-04-30T04:20:31.369Z,13.96
2024-04-30T04:23:18.370Z,13.91
2024-04-30T04:25:58.732Z,13.91
2024-04-30T04:28:45.315Z,13.89
2024-04-30T04:31:32.489Z,13.87
2024-04-30T04:34:19.454Z,13.80
2024-04-30T04:37:00.538Z,13.77
2024-04-30T04:39:40.758Z,13.68
2024-04-30T04:42:27.338Z,13.64
2024-04-30T04:45:07.869Z,13.59
2024-04-30T04:48:01.363Z,13.53
2024-04-30T04:50:42.866Z,13.51
2024-04-30T04:53:30.449Z,13.49
2024-04-30T04:56:17.440Z,13.46
2024-04-30T04:58:57.367Z,13.47
2024-04-30T05:01:37.799Z,13.41
2024-04-30T05:04:24.409Z,13.47
2024-04-30T05:07:11.331Z,13.40
2024-04-30T05:10:01.322Z,13.46
2024-04-30T05:12:48.288Z,13.46
2024-04-30T05:15:35.283Z,13.42
2024-04-30T05:18:15.645Z,13.37
2024-04-30T05:21:02.289Z,13.35
2024-04-30T05:23:42.618Z,13.38
2024-04-30T05:26:29.288Z,13.27
2024-04-30T05:29:09.633Z,13.26
2024-04-30T05:31:56.251Z,13.24
2024-04-30T05:34:43.450Z,13.21
2024-04-30T05:37:23.262Z,13.17
2024-04-30T05:40:10.396Z,13.17
2024-04-30T05:42:50.243Z,13.13
2024-04-30T05:45:37.263Z,13.10
2024-04-30T05:48:17.340Z,13.11
2024-04-30T05:51:04.243Z,13.13
2024-04-30T05:53:52.904Z,13.13
2024-04-30T05:56:41.210Z,13.16
2024-04-30T05:59:21.310Z,13.22
2024-04-30T06:02:08.203Z,13.19
2024-04-30T06:04:48.427Z,13.17
2024-04-30T06:07:35.271Z,13.16
2024-04-30T06:10:15.359Z,13.12
2024-04-30T06:13:02.319Z,13.07
2024-04-30T06:15:42.428Z,13.06
2024-04-30T06:18:29.251Z,13.15
2024-04-30T06:21:11.958Z,13.16
2024-04-30T06:23:59.223Z,13.13
2024-04-30T06:26:46.208Z,13.12
2024-04-30T06:29:26.580Z,13.28
2024-04-30T06:32:13.192Z,13.33
2024-04-30T06:34:53.705Z,13.33
2024-04-30T06:37:41.187Z,13.36
2024-04-30T06:40:26.441Z,13.38
2024-04-30T06:43:14.230Z,13.29
2024-04-30T06:45:54.616Z,13.33
2024-04-30T06:48:48.238Z,13.35
2024-04-30T06:51:35.246Z,13.38
2024-04-30T06:54:15.136Z,13.46
2024-04-30T06:57:02.312Z,13.49
2024-04-30T06:59:42.207Z,13.36
2024-04-30T07:02:23.327Z,13.24
2024-04-30T07:05:10.360Z,13.22
2024-04-30T07:07:50.522Z,13.22
2024-04-30T07:10:37.233Z,13.19
2024-04-30T07:13:24.246Z,13.17
2024-04-30T07:16:04.285Z,13.19
2024-04-30T07:18:44.668Z,13.23
2024-04-30T07:21:32.142Z,13.23
2024-04-30T07:24:12.449Z,13.18
2024-04-30T07:27:01.161Z,13.20
2024-04-30T07:29:41.484Z,13.14
2024-04-30T07:32:28.239Z,13.08
2024-04-30T07:35:08.524Z,13.09
2024-04-30T07:37:55.109Z,13.10
2024-04-30T07:40:42.257Z,13.11
2024-04-30T07:43:22.228Z,13.07
2024-04-30T07:46:02.556Z,13.09
2024-04-30T07:48:49.249Z,13.10
2024-04-30T07:51:36.252Z,13.16
2024-04-30T07:54:16.087Z,13.17
2024-04-30T07:57:03.085Z,13.15
2024-04-30T07:59:43.215Z,13.18
2024-04-30T08:13:51.802Z,13.06
2024-04-30T08:16:39.369Z,13.14
2024-04-30T08:19:19.961Z,13.18
2024-04-30T08:22:06.805Z,13.22
2024-04-30T08:24:46.843Z,13.27
2024-04-30T08:27:33.742Z,13.40
2024-04-30T08:30:21.743Z,13.48
2024-04-30T08:33:08.923Z,13.58
2024-04-30T08:35:49.747Z,13.65
2024-04-30T08:38:30.130Z,13.68
2024-04-30T08:41:20.798Z,13.68
2024-04-30T08:44:02.262Z,13.62
2024-04-30T08:46:50.806Z,13.60
2024-04-30T08:49:38.683Z,13.70
2024-04-30T08:52:34.805Z,13.88
2024-04-30T08:55:24.926Z,14.02
2024-04-30T08:58:04.820Z,14.37
2024-04-30T09:00:52.402Z,14.82
2024-04-30T09:03:33.752Z,14.82
2024-04-30T09:06:28.823Z,15.19
2024-04-30T09:09:22.712Z,15.08
2024-04-30T09:12:17.716Z,14.86
2024-04-30T09:14:58.092Z,14.77
2024-04-30T09:17:44.800Z,14.77
2024-04-30T09:20:25.206Z,14.96
2024-04-30T09:23:11.717Z,14.98
2024-04-30T09:25:52.087Z,15.14
2024-04-30T09:28:38.813Z,15.12
2024-04-30T09:31:25.814Z,15.07
2024-04-30T09:34:06.715Z,15.18
2024-04-30T09:36:47.003Z,15.31
2024-04-30T09:39:35.674Z,15.32
2024-04-30T09:42:23.654Z,15.48
2024-04-30T09:45:12.682Z,15.59
2024-04-30T09:47:54.827Z,15.55
2024-04-30T09:50:45.669Z,15.36
2024-04-30T09:53:33.694Z,15.37
2024-04-30T09:56:13.733Z,15.17
2024-04-30T09:59:00.647Z,15.39
2024-04-30T10:01:41.784Z,15.10
2024-04-30T10:04:29.674Z,15.01
2024-04-30T10:07:11.856Z,14.92
2024-04-30T10:10:02.656Z,14.66
2024-04-30T10:12:56.662Z,14.58
2024-04-30T10:15:43.620Z,14.47
2024-04-30T10:18:34.670Z,14.53
2024-04-30T10:21:21.643Z,14.49
2024-04-30T10:24:02.184Z,14.39
2024-04-30T10:26:51.716Z,14.30
2024-04-30T10:29:31.747Z,14.34
2024-04-30T10:32:18.660Z,14.44
2024-04-30T10:35:02.711Z,14.48
2024-04-30T10:37:50.661Z,14.54
2024-04-30T10:40:40.699Z,14.40
2024-04-30T10:43:30.842Z,14.26
2024-04-30T10:46:22.667Z,14.10
2024-04-30T10:49:12.719Z,13.93
2024-04-30T10:51:52.601Z,13.75
2024-04-30T10:54:33.249Z,13.68
2024-04-30T10:57:20.626Z,13.66
2024-04-30T11:00:04.646Z,13.41
2024-04-30T11:02:52.609Z,13.49
2024-04-30T11:05:39.591Z,13.41
2024-04-30T11:08:20.230Z,13.41
2024-04-30T11:11:18.616Z,13.34
2024-04-30T11:14:05.639Z,13.13
2024-04-30T11:16:45.591Z,13.11
2024-04-30T11:19:25.958Z,13.12
2024-04-30T11:22:12.613Z,12.99
2024-04-30T11:24:52.972Z,12.98
2024-04-30T11:27:39.550Z,12.93
2024-04-30T11:30:19.926Z,12.90
2024-04-30T11:33:06.619Z,12.91
2024-04-30T11:35:53.663Z,12.91
2024-04-30T11:38:40.711Z,12.94
2024-04-30T11:41:20.651Z,12.93
2024-04-30T11:44:07.540Z,12.88
2024-04-30T11:46:47.650Z,12.89
2024-04-30T11:49:34.591Z,12.93
2024-04-30T11:52:14.681Z,12.88
2024-04-30T11:55:08.645Z,12.90
2024-04-30T11:57:48.926Z,12.92
2024-04-30T12:00:37.880Z,12.97
2024-04-30T12:03:26.883Z,12.89
2024-04-30T12:06:09.504Z,12.88
2024-04-30T12:08:49.951Z,12.78
2024-04-30T12:11:43.536Z,12.85
2024-04-30T12:14:30.628Z,12.82
2024-04-30T12:17:10.539Z,12.91
2024-04-30T12:19:57.488Z,12.84
2024-04-30T12:22:40.002Z,12.78
2024-04-30T12:25:26.483Z,12.77
2024-04-30T12:28:14.559Z,12.76
2024-04-30T12:31:01.552Z,12.71
2024-04-30T12:33:41.740Z,12.70
2024-04-30T12:36:28.453Z,12.71
2024-04-30T12:39:08.724Z,12.69
2024-04-30T12:41:55.561Z,12.61
2024-04-30T12:44:36.456Z,12.62
2024-04-30T12:47:23.529Z,12.63
2024-04-30T12:50:03.552Z,12.60
2024-04-30T12:52:50.731Z,12.63
2024-04-30T12:55:31.852Z,12.61
2024-04-30T12:58:20.493Z,12.61
2024-04-30T13:01:00.579Z,12.58
2024-04-30T13:03:47.472Z,12.60
2024-04-30T13:06:34.502Z,12.56
2024-04-30T13:09:15.427Z,12.53
2024-04-30T13:12:09.456Z,12.53
2024-04-30T13:14:56.400Z,12.51
2024-04-30T13:17:36.510Z,12.50
2024-04-30T13:20:23.415Z,12.49
2024-04-30T13:23:03.604Z,12.41
2024-04-30T13:25:50.468Z,12.42
2024-04-30T13:28:30.542Z,12.38
2024-04-30T13:31:17.465Z,12.36
2024-04-30T13:34:04.401Z,12.38
2024-04-30T13:36:44.914Z,12.36
2024-04-30T13:39:31.432Z,12.37
2024-04-30T13:42:18.394Z,12.36
2024-04-30T13:44:58.458Z,12.33
2024-04-30T13:47:45.428Z,12.35
2024-04-30T13:50:25.560Z,12.37
2024-04-30T13:53:12.436Z,12.33
2024-04-30T13:55:52.473Z,12.31
2024-04-30T13:58:39.486Z,12.37
2024-04-30T14:01:30.443Z,12.35
2024-04-30T14:04:10.980Z,12.31
2024-04-30T14:06:58.339Z,12.28
2024-04-30T14:09:38.735Z,12.31
2024-04-30T14:12:25.342Z,12.25
2024-04-30T14:15:12.319Z,12.23
2024-04-30T14:17:52.494Z,12.22
2024-04-30T14:20:39.328Z,12.23
2024-04-30T14:23:19.408Z,12.18
2024-04-30T14:26:08.386Z,12.22
2024-04-30T14:28:48.457Z,12.21
2024-04-30T14:31:35.394Z,12.12
2024-04-30T14:34:15.554Z,12.17
2024-04-30T14:37:02.325Z,12.14
2024-04-30T14:39:42.549Z,12.09
2024-04-30T14:42:30.373Z,12.13
2024-04-30T14:45:10.416Z,12.19
2024-04-30T14:47:57.381Z,12.17
2024-04-30T14:50:38.860Z,12.17
2024-04-30T14:53:26.583Z,12.20
2024-04-30T14:56:06.360Z,12.20
2024-04-30T14:58:53.274Z,12.17
2024-04-30T15:01:33.398Z,12.18
2024-04-30T15:04:20.361Z,12.20
2024-04-30T15:07:07.261Z,12.16
2024-04-30T15:10:00.448Z,12.18
2024-04-30T15:12:54.419Z,12.18
2024-04-30T15:15:41.232Z,12.16
2024-04-30T15:18:28.303Z,12.13
2024-04-30T15:21:15.450Z,12.19
2024-04-30T15:23:55.277Z,12.18
2024-04-30T15:26:39.137Z,12.15
2024-04-30T15:29:26.255Z,12.17
2024-04-30T15:32:06.874Z,12.20
2024-04-30T15:34:54.252Z,12.18
2024-04-30T15:37:41.450Z,12.19
2024-04-30T15:40:21.307Z,12.21
2024-04-30T15:43:01.554Z,12.21
2024-04-30T15:45:48.198Z,12.23
2024-04-30T15:48:28.760Z,12.25
2024-04-30T15:51:19.291Z,12.23
2024-04-30T15:53:59.551Z,12.21
2024-04-30T15:56:53.852Z,12.24
2024-04-30T15:59:46.521Z,12.25
2024-04-30T16:02:26.197Z,12.22
2024-04-30T16:05:08.478Z,12.19
2024-04-30T16:07:55.330Z,12.21
2024-04-30T16:10:35.648Z,12.26
2024-04-30T16:13:22.281Z,12.27
2024-04-30T16:16:16.534Z,12.31
2024-04-30T16:18:58.173Z,12.31
2024-04-30T16:21:38.824Z,12.29
2024-04-30T16:24:26.372Z,12.28
2024-04-30T16:27:06.541Z,12.32
2024-04-30T16:29:53.237Z,12.28
2024-04-30T16:32:33.638Z,12.26
2024-04-30T16:35:21.175Z,12.30
2024-04-30T16:38:01.591Z,12.34
2024-04-30T16:40:49.176Z,12.36
2024-04-30T16:43:29.466Z,12.32
2024-04-30T16:46:16.100Z,12.33
2024-04-30T16:49:05.925Z,12.32
2024-04-30T16:51:48.390Z,12.29
2024-04-30T16:54:36.178Z,12.32
2024-04-30T16:57:16.529Z,12.29
2024-04-30T17:00:03.175Z,12.27
2024-04-30T17:02:50.193Z,12.30
2024-04-30T17:05:37.144Z,12.26
2024-04-30T17:08:17.396Z,12.30
2024-04-30T17:11:06.187Z,12.21
2024-04-30T17:14:00.087Z,12.23
2024-04-30T17:16:47.287Z,12.25
2024-04-30T17:19:27.110Z,12.24
2024-04-30T17:22:14.129Z,12.27
2024-04-30T17:24:57.192Z,12.27
2024-04-30T17:27:44.104Z,12.29
2024-04-30T17:30:31.158Z,12.27
2024-04-30T17:33:18.138Z,12.32
2024-04-30T17:35:58.145Z,12.32
2024-04-30T17:38:45.028Z,12.35
2024-04-30T17:41:32.224Z,12.37
2024-04-30T17:44:19.025Z,12.39
2024-04-30T17:46:59.227Z,12.39
2024-04-30T17:49:46.060Z,12.38
2024-04-30T17:52:26.890Z,12.40
2024-04-30T17:55:15.045Z,12.36
2024-04-30T17:57:55.215Z,12.35
2024-04-30T18:00:42.079Z,12.35
2024-04-30T18:03:22.373Z,12.30
2024-04-30T18:06:09.057Z,12.28
2024-04-30T18:08:49.631Z,12.22
2024-04-30T18:11:37.092Z,12.21
2024-04-30T18:14:24.087Z,12.19
2024-04-30T18:17:11.067Z,12.14
2024-04-30T18:19:58.009Z,12.17
2024-04-30T18:22:47.020Z,12.15
2024-04-30T18:25:27.113Z,12.17
2024-04-30T18:28:13.991Z,12.14
2024-04-30T18:30:54.160Z,12.15
2024-04-30T18:33:41.054Z,12.15
2024-04-30T18:36:30.154Z,12.12
2024-04-30T18:39:15.146Z,12.10
2024-04-30T18:42:02.070Z,12.11
2024-04-30T18:44:42.648Z,12.12
2024-04-30T18:47:30.025Z,12.10
2024-04-30T18:50:10.360Z,12.11
2024-04-30T18:52:56.976Z,12.14
2024-04-30T18:55:44.112Z,12.16
2024-04-30T18:58:24.014Z,12.14
2024-04-30T19:01:04.761Z,12.12
2024-04-30T19:03:53.558Z,12.15
2024-04-30T19:06:34.394Z,12.15
2024-04-30T19:09:22.154Z,12.15
2024-04-30T19:12:09.059Z,12.19
2024-04-30T19:15:03.048Z,12.20
2024-04-30T19:17:43.429Z,12.24
2024-04-30T19:20:29.956Z,12.29
2024-04-30T19:23:16.959Z,12.33
2024-04-30T19:26:04.149Z,12.33
2024-04-30T19:28:44.292Z,12.31
2024-04-30T19:31:31.954Z,12.34
2024-04-30T19:34:14.789Z,12.39
2024-04-30T19:37:01.968Z,12.48
2024-04-30T19:39:49.120Z,12.57
2024-04-30T19:42:35.970Z,12.68
2024-04-30T19:45:23.210Z,12.74
2024-04-30T19:48:03.036Z,12.63
2024-04-30T19:50:56.871Z,12.48
2024-04-30T19:53:37.320Z,12.42
2024-04-30T20:11:37.566Z,12.53
2024-04-30T20:14:24.475Z,12.78
2024-04-30T20:17:04.577Z,12.95
2024-04-30T20:19:51.451Z,13.11
2024-04-30T20:22:39.557Z,13.18
2024-04-30T20:25:34.482Z,13.21
2024-04-30T20:28:14.836Z,13.27
2024-04-30T20:31:01.484Z,13.33
2024-04-30T20:33:48.527Z,13.31
2024-04-30T20:36:29.144Z,13.36
2024-04-30T20:39:16.432Z,13.32
2024-04-30T20:41:56.511Z,13.33
2024-04-30T20:44:43.428Z,13.43
2024-04-30T20:47:23.621Z,13.42
2024-04-30T20:50:10.405Z,13.45
2024-04-30T20:53:04.399Z,13.48
2024-04-30T20:55:51.506Z,13.45
2024-04-30T20:58:31.428Z,13.49
2024-04-30T21:01:16.913Z,13.52
2024-04-30T21:04:11.605Z,13.49
2024-04-30T21:06:58.466Z,13.56
2024-04-30T21:09:38.838Z,13.57
2024-04-30T21:12:25.409Z,13.66
2024-04-30T21:15:12.386Z,13.61
2024-04-30T21:17:59.444Z,13.62
2024-04-30T21:20:39.443Z,13.59
2024-04-30T21:23:28.414Z,13.56
2024-04-30T21:26:15.375Z,13.51
2024-04-30T21:29:02.406Z,13.51
2024-04-30T21:31:42.443Z,13.40
2024-04-30T21:34:29.408Z,13.35
2024-04-30T21:37:16.371Z,13.32
2024-04-30T21:40:03.431Z,13.34
2024-04-30T21:42:43.530Z,13.30
2024-04-30T21:45:30.364Z,13.27
2024-04-30T21:48:17.398Z,13.24
2024-04-30T21:51:04.354Z,13.22
2024-04-30T21:53:51.345Z,13.19
2024-04-30T21:56:38.486Z,13.19
2024-04-30T21:59:18.340Z,13.15
2024-04-30T22:02:05.361Z,13.17
2024-04-30T22:04:53.358Z,13.22
2024-04-30T22:07:40.314Z,13.23
2024-04-30T22:10:34.372Z,13.26
2024-04-30T22:13:21.323Z,13.23
2024-04-30T22:16:09.350Z,13.24
2024-04-30T22:18:56.355Z,13.27
2024-04-30T22:21:43.356Z,13.32
2024-04-30T22:24:30.298Z,13.22
2024-04-30T22:27:17.261Z,13.24
2024-04-30T22:30:05.792Z,13.18
2024-04-30T22:33:00.375Z,13.21
2024-04-30T22:35:40.378Z,13.16
2024-04-30T22:38:27.280Z,13.14
2024-04-30T22:41:14.317Z,13.15
2024-04-30T22:43:54.672Z,13.13
2024-04-30T22:46:41.264Z,13.14
2024-04-30T22:49:28.292Z,13.13
2024-04-30T22:52:08.373Z,13.15
2024-04-30T22:54:57.350Z,13.17
2024-04-30T22:57:44.306Z,13.16
2024-04-30T23:00:31.419Z,13.22
2024-04-30T23:03:11.327Z,13.24
2024-04-30T23:05:58.243Z,13.23
2024-04-30T23:08:38.354Z,13.26
2024-04-30T23:11:25.380Z,13.25
2024-04-30T23:14:12.223Z,13.27
2024-04-30T23:16:59.244Z,13.28
2024-04-30T23:19:46.255Z,13.24
2024-04-30T23:22:33.377Z,13.26
2024-04-30T23:25:13.223Z,13.24
2024-04-30T23:27:53.726Z,13.23
2024-04-30T23:30:41.261Z,13.17
2024-04-30T23:33:21.633Z,13.17
2024-04-30T23:36:08.231Z,13.16
2024-04-30T23:38:48.638Z,13.26
2024-04-30T23:41:35.227Z,13.31
2024-04-30T23:44:15.569Z,13.32
2024-04-30T23:47:02.246Z,13.33
2024-04-30T23:49:42.566Z,13.33
2024-04-30T23:52:29.220Z,13.37
2024-04-30T23:55:16.205Z,13.37
2024-04-30T23:58:03.200Z,13.37
